Abilene, Kansas
Current Conditions -  °F | °C
As of 8:16 PM on Saturday 22 Nov 2014 (Local Time) from KSLN Reporting Station
Overcast Overcast  
Wind Chill: 14°   Ceiling: 1400
Heat Index: 14°   Visibility: 10mi
Dew Point: 12°   Wind: 15mph
Humidity: 84%   Direction: 180°S
Pressure: 29.63"   Gusts: 24mph
Location:  38.92°N, 97.21°W
Report Text: KSLN 230216Z 18013G21KT 10SM OVC014 14/12 A2963 RMK AO2 T01440117
Loading
Personal Weather Stations






























Interactive Weather Map New forecast layout! Learn more

10-Day Weather Forecast

Advertisements
Track Severe Weather on mobile